Time;durP1;ratioP1;P1;durP2;ratioP2;P2;SDS_P1;SDS_P2;PMS_P1;PMS_P2;Temp;Humidity;BMP_temperature;BMP_pressure;BME280_temperature;BME280_humidity;BME280_pressure;Samples;Min_cycle;Max_cycle;Signal;HPM_P1;HPM_P2
2022/11/07 00:00:59;;;;;;;3.13;2.40;;;12.00;99.90;;;;;;4973013;28;20262;-95
2022/11/07 00:03:25;;;;;;;9.33;2.97;;;11.90;99.90;;;;;;4972803;28;20227;-94
2022/11/07 00:05:53;;;;;;;5.13;3.63;;;11.90;99.90;;;;;;4989050;28;20204;-95
2022/11/07 00:08:30;;;;;;;2.97;2.17;;;11.90;99.90;;;;;;4988883;28;20233;-96
2022/11/07 00:11:00;;;;;;;4.47;2.27;;;11.90;99.90;;;;;;4974461;28;20202;-95
2022/11/07 00:13:27;;;;;;;6.57;1.97;;;11.80;99.90;;;;;;4956549;28;20307;-94
2022/11/07 00:16:13;;;;;;;1.93;1.33;;;11.80;99.90;;;;;;4988572;28;20227;-93
2022/11/07 00:18:39;;;;;;;7.10;3.47;;;11.80;99.90;;;;;;4971843;28;20231;-94
2022/11/07 00:21:07;;;;;;;4.70;1.33;;;11.70;99.90;;;;;;4972639;28;20653;-94
2022/11/07 00:23:33;;;;;;;3.37;2.67;;;11.70;99.90;;;;;;5004452;28;20329;-94
2022/11/07 00:26:06;;;;;;;1.97;1.87;;;11.70;99.90;;;;;;5004779;28;20208;-96
2022/11/07 00:28:33;;;;;;;2.50;2.07;;;11.70;99.90;;;;;;4989005;28;20211;-94
2022/11/07 00:30:59;;;;;;;3.10;2.70;;;11.70;99.90;;;;;;4987394;28;20244;-93
2022/11/07 00:33:25;;;;;;;1.57;1.47;;;11.70;99.90;;;;;;4956377;28;20274;-94
2022/11/07 00:35:50;;;;;;;1.77;1.10;;;11.70;99.90;;;;;;4956029;28;20220;-96
2022/11/07 00:38:16;;;;;;;7.30;2.63;;;11.70;99.90;;;;;;4971772;28;20195;-93
2022/11/07 00:40:42;;;;;;;5.00;2.97;;;11.70;99.90;;;;;;4956700;28;21276;-93
2022/11/07 00:43:10;;;;;;;4.00;3.23;;;11.70;99.90;;;;;;4971579;28;20258;-94
2022/11/07 00:45:36;;;;;;;1.80;1.70;;;11.70;99.90;;;;;;4972274;28;20219;-95
2022/11/07 00:48:01;;;;;;;8.90;2.67;;;11.80;99.90;;;;;;4955791;28;20216;-94
2022/11/07 00:50:27;;;;;;;1.83;1.73;;;11.80;99.90;;;;;;4956383;28;20216;-92
2022/11/07 00:52:55;;;;;;;2.20;2.03;;;11.90;99.90;;;;;;4972197;28;20668;-94
2022/11/07 00:55:21;;;;;;;4.97;2.50;;;12.00;99.90;;;;;;4971942;28;20629;-93
2022/11/07 00:57:47;;;;;;;3.07;2.27;;;12.00;99.90;;;;;;4955751;28;20258;-93
2022/11/07 01:00:13;;;;;;;8.23;3.13;;;12.00;99.90;;;;;;4955960;28;20286;-95
2022/11/07 01:02:39;;;;;;;2.57;1.90;;;12.00;99.90;;;;;;4956034;28;20231;-96
2022/11/07 01:05:11;;;;;;;1.60;1.50;;;11.90;99.90;;;;;;4955303;28;20610;-94
2022/11/07 01:07:38;;;;;;;2.57;1.30;;;11.90;99.90;;;;;;4988180;28;20195;-94
2022/11/07 01:10:06;;;;;;;1.10;1.07;;;11.90;99.90;;;;;;5003640;28;20255;-93
2022/11/07 01:12:35;;;;;;;6.70;1.57;;;11.90;99.90;;;;;;4955920;28;20219;-94
2022/11/07 01:15:02;;;;;;;3.67;1.73;;;11.90;99.90;;;;;;4971630;28;20760;-94
2022/11/07 01:17:28;;;;;;;1.77;1.67;;;11.90;99.90;;;;;;4971500;28;20207;-94
2022/11/07 01:19:54;;;;;;;2.17;2.03;;;11.90;99.90;;;;;;4955678;28;20190;-93
2022/11/07 01:22:20;;;;;;;4.57;1.57;;;11.90;99.90;;;;;;4971534;28;20235;-94
2022/11/07 01:24:46;;;;;;;1.93;1.20;;;12.00;99.90;;;;;;4955204;28;20232;-93
2022/11/07 01:27:12;;;;;;;3.23;1.77;;;11.90;99.90;;;;;;4971785;28;20266;-94
2022/11/07 01:29:38;;;;;;;1.60;1.50;;;11.90;99.90;;;;;;4955383;28;20235;-95
2022/11/07 01:32:04;;;;;;;3.43;2.10;;;11.90;99.90;;;;;;4955638;28;20238;-94
2022/11/07 01:34:30;;;;;;;1.30;1.20;;;11.90;99.90;;;;;;4955924;28;20242;-95
2022/11/07 01:36:56;;;;;;;6.20;1.37;;;11.90;99.90;;;;;;4958145;28;20215;-94
2022/11/07 01:39:21;;;;;;;1.70;1.60;;;11.90;99.90;;;;;;4975294;28;20207;-95
2022/11/07 01:41:47;;;;;;;7.97;2.17;;;11.80;99.90;;;;;;4959653;28;20208;-93
2022/11/07 01:44:13;;;;;;;2.57;2.37;;;11.90;99.90;;;;;;4974655;28;20266;-92
2022/11/07 01:46:41;;;;;;;7.43;1.70;;;11.90;99.90;;;;;;4992341;28;20196;-95
2022/11/07 01:49:17;;;;;;;1.83;1.30;;;12.00;99.90;;;;;;4991282;28;20212;-95
2022/11/07 01:51:59;;;;;;;2.73;2.40;;;12.00;99.90;;;;;;4991560;28;20691;-92
2022/11/07 01:54:29;;;;;;;0.90;0.90;;;12.00;99.90;;;;;;4991612;28;20216;-94
2022/11/07 01:56:58;;;;;;;8.00;2.37;;;12.00;99.90;;;;;;4991389;28;20248;-95
2022/11/07 01:59:27;;;;;;;1.40;1.30;;;12.00;99.90;;;;;;4991159;28;20208;-95
2022/11/07 02:01:54;;;;;;;1.13;1.07;;;12.00;99.90;;;;;;4991380;28;20200;-96
2022/11/07 02:04:23;;;;;;;3.90;2.50;;;12.00;99.90;;;;;;4958868;28;20700;-95
2022/11/07 02:06:57;;;;;;;3.63;1.80;;;12.00;99.90;;;;;;4991124;28;20255;-95
2022/11/07 02:09:23;;;;;;;1.40;1.07;;;12.00;99.90;;;;;;4991251;28;20216;-95
2022/11/07 02:11:48;;;;;;;2.27;1.10;;;12.00;99.90;;;;;;4958615;28;20282;-94
2022/11/07 02:14:15;;;;;;;9.20;2.43;;;12.00;99.90;;;;;;4959197;28;20287;-95
2022/11/07 02:16:42;;;;;;;3.73;1.33;;;12.00;99.90;;;;;;4991665;28;20211;-95
2022/11/07 02:19:34;;;;;;;8.33;3.23;;;12.00;99.90;;;;;;4974267;28;20716;-94
2022/11/07 02:22:15;;;;;;;1.37;1.27;;;12.00;99.90;;;;;;4990619;28;20555;-95
2022/11/07 02:24:41;;;;;;;3.33;1.40;;;12.00;99.90;;;;;;5006534;28;20235;-94
2022/11/07 02:27:12;;;;;;;5.23;2.23;;;12.10;99.90;;;;;;4990648;28;20586;-94
2022/11/07 02:29:40;;;;;;;8.37;1.43;;;12.10;99.90;;;;;;4991006;28;20247;-96
2022/11/07 02:32:08;;;;;;;3.27;1.30;;;12.10;99.90;;;;;;4990620;28;20664;-96
2022/11/07 02:34:34;;;;;;;2.17;1.67;;;12.00;99.90;;;;;;4991595;28;20895;-96
2022/11/07 02:37:21;;;;;;;3.27;2.97;;;12.00;99.90;;;;;;4990650;28;20216;-96
2022/11/07 02:39:47;;;;;;;3.37;1.43;;;12.00;99.90;;;;;;4990813;28;20235;-95
2022/11/07 02:42:13;;;;;;;5.67;1.40;;;12.00;99.90;;;;;;4958100;28;20254;-93
2022/11/07 02:44:39;;;;;;;3.87;2.63;;;12.00;99.90;;;;;;4958267;28;20696;-93
2022/11/07 02:47:05;;;;;;;9.83;2.23;;;11.90;99.90;;;;;;4957502;28;20219;-94
2022/11/07 02:49:30;;;;;;;0.87;0.87;;;12.00;99.90;;;;;;4958752;28;20196;-94
2022/11/07 02:51:56;;;;;;;0.87;0.80;;;12.10;99.90;;;;;;4958137;28;20302;-93
2022/11/07 02:54:22;;;;;;;1.87;1.07;;;12.00;99.90;;;;;;4974259;28;20632;-93
2022/11/07 02:56:48;;;;;;;0.33;0.33;;;12.00;99.90;;;;;;4974598;28;20211;-96
2022/11/07 02:59:13;;;;;;;2.50;0.80;;;11.90;99.90;;;;;;4973714;28;20210;-95
2022/11/07 03:01:39;;;;;;;1.53;1.43;;;11.90;99.90;;;;;;4959114;28;20199;-94
2022/11/07 03:04:05;;;;;;;1.13;0.50;;;11.90;99.90;;;;;;4957411;28;20228;-93
2022/11/07 03:06:31;;;;;;;6.83;1.73;;;11.90;99.90;;;;;;4957982;28;20216;-94
2022/11/07 03:08:56;;;;;;;4.90;2.03;;;11.90;99.90;;;;;;4957884;28;20216;-95
2022/11/07 03:11:22;;;;;;;0.60;0.60;;;12.00;99.90;;;;;;4957373;28;20688;-94
2022/11/07 03:13:49;;;;;;;0.63;0.63;;;12.00;99.90;;;;;;4958635;28;20196;-94
2022/11/07 03:16:16;;;;;;;0.77;0.70;;;12.00;99.90;;;;;;4988953;28;20696;-96
2022/11/07 03:18:42;;;;;;;9.87;0.87;;;12.10;99.90;;;;;;5006049;28;20228;-95
2022/11/07 03:21:08;;;;;;;1.60;1.33;;;12.10;99.90;;;;;;4973735;28;20220;-94
2022/11/07 03:23:35;;;;;;;3.10;0.73;;;12.20;99.90;;;;;;4988579;28;20259;-94
2022/11/07 03:26:01;;;;;;;1.77;0.90;;;12.30;99.90;;;;;;4973373;28;20196;-93
2022/11/07 03:28:27;;;;;;;1.40;1.03;;;12.20;99.90;;;;;;4989765;28;20322;-93
2022/11/07 03:30:53;;;;;;;4.97;1.40;;;12.20;99.90;;;;;;4988622;28;20335;-93
2022/11/07 03:33:19;;;;;;;1.60;1.33;;;12.20;99.90;;;;;;4956814;28;20238;-94
2022/11/07 03:35:45;;;;;;;12.43;1.37;;;12.20;99.90;;;;;;4956846;28;20693;-94
2022/11/07 03:38:11;;;;;;;1.43;1.33;;;12.20;99.90;;;;;;4972283;28;20192;-93
2022/11/07 03:40:36;;;;;;;1.50;0.60;;;12.20;99.90;;;;;;4989666;28;20530;-93
2022/11/07 03:43:02;;;;;;;2.03;1.93;;;12.20;99.90;;;;;;4956644;28;20594;-94
2022/11/07 03:45:28;;;;;;;4.40;1.50;;;12.20;99.90;;;;;;4972993;28;20652;-92
2022/11/07 03:47:54;;;;;;;4.37;1.33;;;12.20;99.90;;;;;;4956711;28;20211;-93
2022/11/07 03:50:21;;;;;;;13.30;2.43;;;12.20;99.90;;;;;;4956958;28;20677;-93
2022/11/07 03:52:49;;;;;;;8.10;1.20;;;12.10;99.90;;;;;;4957927;28;20687;-94
2022/11/07 03:55:16;;;;;;;2.50;1.70;;;12.10;99.90;;;;;;4988607;28;20219;-94
2022/11/07 03:57:49;;;;;;;0.83;0.83;;;12.10;99.90;;;;;;4982082;28;20229;-92
2022/11/07 04:00:15;;;;;;;2.60;1.50;;;12.10;99.90;;;;;;4988781;28;20254;-94
2022/11/07 04:02:42;;;;;;;1.33;1.23;;;12.10;99.90;;;;;;4989382;28;20893;-92
2022/11/07 04:05:08;;;;;;;0.90;0.90;;;12.20;99.90;;;;;;4989017;28;20216;-94
2022/11/07 04:07:34;;;;;;;1.87;1.17;;;12.10;99.90;;;;;;4972902;28;20199;-95
2022/11/07 04:10:00;;;;;;;1.80;0.70;;;12.10;99.90;;;;;;4972573;28;20579;-95
2022/11/07 04:17:54;;;;;;;1.73;0.87;;;12.10;99.90;;;;;;4988712;28;20219;-92
2022/11/07 04:20:20;;;;;;;4.23;1.10;;;12.10;99.90;;;;;;4965448;28;20298;-94
2022/11/07 04:22:46;;;;;;;1.70;1.23;;;12.10;99.90;;;;;;4972533;28;20286;-93
2022/11/07 04:25:12;;;;;;;2.43;1.83;;;12.20;99.90;;;;;;4988434;28;20230;-91
2022/11/07 04:27:41;;;;;;;4.40;1.37;;;12.20;99.90;;;;;;4971964;28;20224;-94
2022/11/07 04:30:23;;;;;;;2.07;1.30;;;12.10;99.90;;;;;;4972120;28;20216;-94
2022/11/07 04:32:52;;;;;;;5.17;1.83;;;12.10;99.90;;;;;;4988357;28;20223;-94
2022/11/07 04:35:19;;;;;;;6.27;1.37;;;12.20;99.90;;;;;;4987561;28;20844;-95
2022/11/07 04:37:46;;;;;;;3.03;1.67;;;12.20;99.90;;;;;;4988864;28;20223;-95
2022/11/07 04:40:12;;;;;;;0.80;0.80;;;12.20;99.90;;;;;;4971925;28;20720;-93
2022/11/07 04:42:38;;;;;;;5.83;1.47;;;12.10;99.90;;;;;;4981910;28;20594;-93
2022/11/07 04:45:05;;;;;;;6.20;1.80;;;12.10;99.90;;;;;;4986885;28;20219;-94
2022/11/07 04:47:34;;;;;;;11.93;1.10;;;12.00;99.90;;;;;;4971712;28;20223;-93
2022/11/07 04:50:00;;;;;;;2.27;1.23;;;12.00;99.90;;;;;;4971965;28;20199;-93
2022/11/07 04:52:29;;;;;;;3.30;1.63;;;12.10;99.90;;;;;;4988607;28;20198;-94
2022/11/07 04:54:58;;;;;;;1.80;0.80;;;12.10;99.90;;;;;;4987575;28;20212;-94
2022/11/07 04:57:27;;;;;;;4.07;0.93;;;12.10;99.90;;;;;;4987385;28;20255;-92
2022/11/07 04:59:53;;;;;;;5.97;1.43;;;12.10;99.90;;;;;;4987741;28;20557;-95
2022/11/07 05:02:23;;;;;;;2.43;2.07;;;12.10;99.90;;;;;;4972246;28;20218;-92
2022/11/07 05:04:57;;;;;;;2.50;1.20;;;12.20;99.90;;;;;;4973427;28;20218;-93
2022/11/07 05:07:22;;;;;;;4.30;1.20;;;12.10;99.90;;;;;;4972029;28;20306;-93
2022/11/07 05:09:48;;;;;;;6.23;1.90;;;12.10;99.90;;;;;;4955428;28;20207;-92
2022/11/07 05:12:14;;;;;;;4.43;1.63;;;12.00;99.90;;;;;;4987752;28;20204;-93
2022/11/07 05:14:40;;;;;;;1.50;1.40;;;12.00;99.90;;;;;;4955451;28;20627;-92
2022/11/07 05:17:06;;;;;;;1.53;1.23;;;12.00;99.90;;;;;;4954798;28;20184;-93
2022/11/07 05:19:32;;;;;;;1.70;1.60;;;11.90;99.90;;;;;;4988578;28;20268;-92
2022/11/07 05:24:52;;;;;;;5.43;1.13;;;11.90;99.90;;;;;;4952597;28;20304;-93
2022/11/07 05:27:19;;;;;;;1.20;0.87;;;11.90;99.90;;;;;;4954873;28;20587;-92
2022/11/07 05:29:50;;;;;;;1.10;1.00;;;11.90;99.90;;;;;;4971368;28;20216;-92
2022/11/07 05:32:19;;;;;;;2.57;1.23;;;12.00;99.90;;;;;;4987040;28;20219;-92
2022/11/07 05:34:45;;;;;;;7.67;1.13;;;12.00;99.90;;;;;;4988385;28;20207;-93
2022/11/07 05:37:12;;;;;;;6.00;2.37;;;12.00;99.90;;;;;;4986703;28;20220;-93
2022/11/07 05:39:38;;;;;;;2.63;1.70;;;12.00;99.90;;;;;;4987423;28;20737;-94
2022/11/07 05:42:04;;;;;;;2.57;1.83;;;12.10;99.90;;;;;;4987333;28;20223;-93
2022/11/07 05:44:30;;;;;;;0.90;0.87;;;12.00;99.90;;;;;;4971373;28;20770;-94
2022/11/07 05:46:59;;;;;;;3.23;0.90;;;12.00;99.90;;;;;;4972059;28;20204;-92
2022/11/07 05:49:25;;;;;;;0.70;0.70;;;12.00;99.90;;;;;;5006001;28;20219;-94
2022/11/07 05:51:51;;;;;;;1.80;1.70;;;12.00;99.90;;;;;;4987619;28;20220;-93
2022/11/07 05:54:17;;;;;;;1.37;1.27;;;11.90;99.90;;;;;;4942923;28;20238;-92
2022/11/07 05:56:43;;;;;;;1.07;0.90;;;11.80;99.90;;;;;;4990484;28;20729;-96
2022/11/07 05:59:10;;;;;;;4.57;1.20;;;11.80;99.90;;;;;;4945495;28;20707;-94
2022/11/07 06:01:36;;;;;;;1.87;0.90;;;11.80;99.90;;;;;;4987043;28;20192;-95
2022/11/07 06:04:05;;;;;;;0.60;0.60;;;11.70;99.90;;;;;;4971193;28;20250;-93
2022/11/07 06:06:31;;;;;;;6.03;1.30;;;11.70;99.90;;;;;;4970556;28;20212;-93
2022/11/07 06:08:57;;;;;;;0.40;0.40;;;11.70;99.90;;;;;;4970902;28;20250;-94
2022/11/07 06:11:23;;;;;;;3.60;1.47;;;11.70;99.90;;;;;;4970740;28;21261;-94
2022/11/07 06:13:49;;;;;;;2.27;0.47;;;11.70;99.90;;;;;;4955243;28;20180;-93
2022/11/07 06:16:14;;;;;;;1.23;0.70;;;11.70;99.90;;;;;;4954281;28;20223;-94
2022/11/07 06:18:40;;;;;;;0.87;0.70;;;11.80;99.90;;;;;;4971106;28;20220;-92
2022/11/07 06:21:06;;;;;;;1.57;1.37;;;11.90;99.90;;;;;;4954859;28;20242;-94
2022/11/07 06:23:33;;;;;;;1.30;0.87;;;11.90;99.90;;;;;;4973208;28;20235;-96
2022/11/07 06:25:58;;;;;;;0.33;0.33;;;12.00;99.90;;;;;;4960202;28;20192;-94
2022/11/07 06:28:24;;;;;;;1.80;1.60;;;12.00;99.90;;;;;;4974014;28;20224;-94
2022/11/07 06:30:50;;;;;;;4.27;1.17;;;12.00;99.90;;;;;;4990813;28;20211;-96
2022/11/07 06:33:18;;;;;;;1.23;1.00;;;12.10;99.90;;;;;;4958971;28;20287;-94
2022/11/07 06:35:44;;;;;;;2.60;1.50;;;12.10;99.90;;;;;;4990659;28;20817;-95
2022/11/07 06:38:12;;;;;;;1.17;1.07;;;12.10;99.90;;;;;;4990848;28;20513;-95
2022/11/07 06:40:39;;;;;;;0.57;0.57;;;12.10;99.90;;;;;;4992861;28;20193;-94
2022/11/07 06:43:08;;;;;;;0.80;0.80;;;12.20;99.90;;;;;;4993002;28;20216;-95
2022/11/07 06:45:45;;;;;;;3.53;1.67;;;12.20;99.90;;;;;;4976464;28;20224;-96
2022/11/07 06:48:12;;;;;;;2.03;1.93;;;12.20;99.90;;;;;;4998780;28;20216;-94
2022/11/07 06:50:39;;;;;;;2.30;0.80;;;12.20;99.90;;;;;;4974955;28;20219;-94
2022/11/07 06:53:10;;;;;;;3.20;1.30;;;12.20;99.90;;;;;;4995924;28;20188;-96
2022/11/07 06:55:37;;;;;;;1.20;1.10;;;12.20;99.90;;;;;;4995407;28;20180;-95
2022/11/07 06:58:04;;;;;;;4.47;1.73;;;12.10;99.90;;;;;;4977962;28;20587;-96
2022/11/07 07:00:37;;;;;;;3.00;1.50;;;12.10;99.90;;;;;;4978513;28;20619;-95
2022/11/07 07:03:03;;;;;;;1.37;1.30;;;12.10;99.90;;;;;;4990145;28;20208;-95
2022/11/07 07:05:30;;;;;;;3.53;1.70;;;12.10;99.90;;;;;;4989293;28;20277;-94
2022/11/07 07:07:56;;;;;;;3.63;1.67;;;12.10;99.90;;;;;;4974860;28;20227;-92
2022/11/07 07:10:23;;;;;;;8.10;1.77;;;12.10;99.90;;;;;;4957425;28;20703;-94
2022/11/07 07:12:49;;;;;;;0.63;0.63;;;12.10;99.90;;;;;;4989757;28;20220;-94
2022/11/07 07:15:15;;;;;;;1.50;1.07;;;12.10;99.90;;;;;;4957816;28;20216;-92
2022/11/07 07:17:41;;;;;;;3.07;1.30;;;12.10;99.90;;;;;;4957914;28;20220;-94
2022/11/07 07:20:07;;;;;;;2.37;2.17;;;12.10;99.90;;;;;;4974905;28;20231;-92
2022/11/07 07:22:33;;;;;;;1.70;1.60;;;12.10;99.90;;;;;;4974870;28;20250;-94
2022/11/07 07:24:59;;;;;;;1.20;1.07;;;12.10;99.90;;;;;;4959573;28;20232;-91
2022/11/07 07:27:25;;;;;;;1.53;0.83;;;12.20;99.90;;;;;;4957640;28;20223;-92
2022/11/07 07:29:52;;;;;;;1.93;1.53;;;12.30;99.90;;;;;;4958330;28;20215;-90
2022/11/07 07:32:19;;;;;;;3.77;2.97;;;12.30;99.90;;;;;;4959302;28;20192;-92
2022/11/07 07:34:44;;;;;;;2.30;2.00;;;12.40;99.90;;;;;;4973990;28;20203;-92
2022/11/07 07:37:10;;;;;;;4.30;2.27;;;12.40;99.90;;;;;;4958386;28;20227;-94
2022/11/07 07:39:36;;;;;;;2.23;2.07;;;12.40;99.90;;;;;;4957729;28;20589;-92
2022/11/07 07:42:15;;;;;;;4.20;1.83;;;12.40;99.90;;;;;;4951922;28;20234;-92
2022/11/07 07:44:40;;;;;;;1.57;1.10;;;12.40;99.90;;;;;;4975339;28;20792;-92
2022/11/07 07:47:09;;;;;;;6.00;1.70;;;12.50;99.90;;;;;;4975398;28;20192;-93
2022/11/07 07:49:35;;;;;;;3.50;1.90;;;12.50;99.90;;;;;;4975654;28;20196;-94
2022/11/07 07:52:22;;;;;;;6.47;1.43;;;12.50;99.90;;;;;;4973937;28;20787;-93
2022/11/07 07:54:48;;;;;;;1.53;1.43;;;12.50;99.90;;;;;;4989132;28;20302;-93
2022/11/07 07:57:14;;;;;;;1.33;1.23;;;12.50;99.90;;;;;;4992209;28;20692;-92
2022/11/07 07:59:42;;;;;;;6.03;1.40;;;12.50;99.90;;;;;;4958177;28;20310;-92
2022/11/07 08:02:12;;;;;;;2.27;1.57;;;12.50;99.90;;;;;;4989227;28;20191;-92
2022/11/07 08:04:40;;;;;;;1.33;1.23;;;12.60;99.90;;;;;;4990065;28;20220;-93
2022/11/07 08:07:06;;;;;;;10.33;4.33;;;12.60;99.90;;;;;;4973791;28;20261;-92
2022/11/07 08:09:35;;;;;;;13.67;4.90;;;12.60;99.90;;;;;;4974209;28;20263;-93
2022/11/07 08:12:07;;;;;;;2.20;2.00;;;12.60;99.90;;;;;;4973905;28;20224;-90
2022/11/07 08:14:34;;;;;;;3.37;2.13;;;12.60;99.90;;;;;;4974938;28;20218;-92
2022/11/07 08:17:00;;;;;;;6.23;5.27;;;12.50;99.90;;;;;;4976271;28;20188;-92
2022/11/07 08:19:26;;;;;;;2.93;2.63;;;12.50;99.90;;;;;;4993587;28;20212;-92
2022/11/07 08:21:52;;;;;;;1.53;1.17;;;12.50;99.90;;;;;;4958348;28;20215;-92
2022/11/07 08:24:20;;;;;;;3.57;3.23;;;12.60;99.90;;;;;;4989842;28;20238;-95
2022/11/07 08:26:47;;;;;;;3.43;3.13;;;12.60;99.90;;;;;;4974414;28;20716;-96
2022/11/07 08:29:13;;;;;;;4.33;2.80;;;12.60;99.90;;;;;;4988398;28;20672;-93
2022/11/07 08:31:39;;;;;;;3.50;2.30;;;12.70;99.90;;;;;;4990787;28;20258;-94
2022/11/07 08:34:05;;;;;;;4.50;4.07;;;12.70;99.90;;;;;;4973603;28;20700;-93
2022/11/07 08:36:30;;;;;;;1.53;1.33;;;12.70;99.90;;;;;;4972286;28;20211;-92
2022/11/07 08:38:56;;;;;;;3.40;2.53;;;12.70;99.90;;;;;;4956434;28;20227;-95
2022/11/07 08:41:22;;;;;;;8.83;3.60;;;12.70;99.90;;;;;;4972284;28;20196;-92
2022/11/07 08:43:48;;;;;;;1.93;1.80;;;12.70;99.90;;;;;;4967069;28;20231;-92
2022/11/07 08:46:14;;;;;;;3.10;2.80;;;12.80;99.90;;;;;;4955895;28;20227;-94
2022/11/07 08:48:40;;;;;;;3.10;2.20;;;12.90;99.90;;;;;;4989537;28;20218;-95
2022/11/07 08:51:06;;;;;;;2.77;2.57;;;12.90;99.90;;;;;;4991163;28;20696;-93
2022/11/07 08:53:32;;;;;;;2.17;1.33;;;12.90;99.90;;;;;;4958834;28;20211;-94
2022/11/07 08:56:05;;;;;;;4.10;1.10;;;12.90;99.90;;;;;;4992059;28;20528;-92
2022/11/07 08:58:33;;;;;;;11.83;2.43;;;12.90;99.90;;;;;;4990567;28;20199;-94
2022/11/07 09:00:59;;;;;;;2.93;1.53;;;12.90;99.90;;;;;;4990690;28;20216;-94
2022/11/07 09:03:45;;;;;;;1.73;1.17;;;12.90;99.90;;;;;;4974466;28;20223;-95
2022/11/07 09:06:12;;;;;;;1.60;1.50;;;12.90;99.90;;;;;;4990454;28;20215;-92
2022/11/07 09:09:22;;;;;;;3.90;2.00;;;12.90;99.90;;;;;;4969289;28;20303;-96
2022/11/07 09:11:53;;;;;;;1.67;1.50;;;13.00;99.90;;;;;;4991251;28;20271;-91
2022/11/07 09:14:28;;;;;;;5.77;2.63;;;13.00;99.90;;;;;;4976191;28;20208;-94
2022/11/07 09:16:54;;;;;;;1.63;1.53;;;13.00;99.90;;;;;;4978248;28;20543;-92
2022/11/07 09:19:20;;;;;;;7.00;1.97;;;13.00;99.90;;;;;;4991839;28;20220;-91
2022/11/07 09:21:47;;;;;;;2.07;1.40;;;13.00;99.90;;;;;;4974488;28;20610;-93
2022/11/07 09:24:16;;;;;;;13.40;2.53;;;13.10;99.90;;;;;;4982714;28;20228;-93
2022/11/07 09:26:46;;;;;;;3.47;1.10;;;13.10;99.90;;;;;;4975885;28;20243;-95
2022/11/07 09:29:13;;;;;;;8.53;2.70;;;13.10;99.90;;;;;;4996493;28;20227;-94
2022/11/07 09:32:08;;;;;;;;;;;;;;;;;;;;;
2022/11/07 09:51:40;;;;;;;16.17;3.00;;;13.30;99.90;;;;;;4914448;29;20577;-92
2022/11/07 09:54:40;;;;;;;3.37;2.10;;;13.30;99.90;;;;;;4912471;29;20191;-95
2022/11/07 09:57:19;;;;;;;5.03;2.90;;;13.40;99.90;;;;;;4906202;29;20191;-92
2022/11/07 10:00:18;;;;;;;3.77;2.03;;;13.40;99.90;;;;;;4903880;29;20248;-93
2022/11/07 10:06:43;;;;;;;3.53;2.20;;;13.50;99.90;;;;;;4860932;29;20297;-93
2022/11/07 10:09:30;;;;;;;4.43;1.80;;;13.60;99.90;;;;;;4934160;29;20773;-95
2022/11/07 10:12:12;;;;;;;3.20;2.53;;;13.60;99.90;;;;;;4992356;28;20684;-94
2022/11/07 10:15:00;;;;;;;5.93;2.87;;;13.60;99.90;;;;;;4993643;28;20807;-92
2022/11/07 10:17:42;;;;;;;4.60;2.27;;;13.60;99.90;;;;;;4994787;28;20216;-94
2022/11/07 10:20:45;;;;;;;1.57;1.47;;;13.60;99.90;;;;;;4994090;28;20192;-96
2022/11/07 10:23:37;;;;;;;2.67;2.43;;;13.60;99.90;;;;;;5006849;28;20286;-91
2022/11/07 10:26:25;;;;;;;5.50;2.40;;;13.70;99.90;;;;;;4994289;28;20208;-95
2022/11/07 10:29:00;;;;;;;4.00;1.37;;;13.80;99.90;;;;;;4993040;28;20270;-95
2022/11/07 10:31:35;;;;;;;5.00;3.03;;;13.80;99.90;;;;;;4981038;28;20226;-92
2022/11/07 10:34:28;;;;;;;4.80;1.73;;;13.90;99.90;;;;;;4990753;28;20618;-92
2022/11/07 10:36:56;;;;;;;5.67;1.70;;;14.00;99.90;;;;;;4982258;28;20574;-90
2022/11/07 10:39:24;;;;;;;2.67;1.97;;;14.10;99.90;;;;;;4989771;28;20234;-91
2022/11/07 10:42:09;;;;;;;3.27;1.60;;;14.10;99.90;;;;;;4990486;28;20204;-91
2022/11/07 10:44:39;;;;;;;2.50;2.30;;;14.10;99.90;;;;;;4990045;28;20342;-91
2022/11/07 10:47:15;;;;;;;6.20;3.07;;;14.20;99.90;;;;;;4991254;28;20192;-93
2022/11/07 10:49:40;;;;;;;10.77;4.67;;;14.30;99.90;;;;;;4975428;28;20190;-92
2022/11/07 10:52:08;;;;;;;7.27;2.60;;;14.30;99.90;;;;;;4974458;28;20208;-93
2022/11/07 10:54:43;;;;;;;4.07;3.20;;;14.40;99.90;;;;;;4989858;28;20246;-92
2022/11/07 10:57:14;;;;;;;9.30;2.83;;;14.60;99.90;;;;;;4992122;28;20672;-94
2022/11/07 11:00:04;;;;;;;1.70;1.60;;;14.60;99.90;;;;;;4993179;28;20299;-92
2022/11/07 11:02:47;;;;;;;2.40;1.10;;;14.60;99.90;;;;;;4975890;28;20215;-91
2022/11/07 11:05:30;;;;;;;12.07;3.20;;;14.50;99.90;;;;;;4991691;28;20528;-91
2022/11/07 11:08:06;;;;;;;2.53;2.03;;;14.60;99.90;;;;;;4992265;28;20192;-93
2022/11/07 11:10:37;;;;;;;3.57;1.63;;;14.70;99.90;;;;;;4976297;28;20692;-91
2022/11/07 11:13:03;;;;;;;7.90;3.97;;;14.70;99.90;;;;;;5007121;28;20266;-92
2022/11/07 11:15:29;;;;;;;2.53;2.20;;;14.80;99.90;;;;;;4958719;28;20243;-93
2022/11/07 11:18:05;;;;;;;2.30;1.80;;;14.90;99.90;;;;;;4991100;28;20244;-93
2022/11/07 11:20:54;;;;;;;4.33;1.47;;;14.90;99.90;;;;;;4984633;28;20211;-93
2022/11/07 11:23:23;;;;;;;1.87;1.57;;;15.00;99.90;;;;;;4991650;28;20290;-92
2022/11/07 11:25:50;;;;;;;3.87;1.73;;;15.00;99.90;;;;;;4991124;28;20196;-93
2022/11/07 11:28:32;;;;;;;1.43;1.10;;;15.10;99.90;;;;;;4989225;28;20220;-91
2022/11/07 11:31:39;;;;;;;5.53;1.50;;;15.10;99.90;;;;;;5006435;28;20228;-90
2022/11/07 11:34:23;;;;;;;5.33;1.47;;;15.00;99.90;;;;;;5005327;28;20215;-91
2022/11/07 11:37:00;;;;;;;4.70;1.63;;;14.90;99.90;;;;;;5004914;28;20215;-93
2022/11/07 11:39:48;;;;;;;5.23;1.90;;;14.80;99.90;;;;;;4988559;28;20266;-93
2022/11/07 11:42:29;;;;;;;5.33;1.87;;;14.70;99.90;;;;;;4991320;28;20224;-94
2022/11/07 11:44:58;;;;;;;2.70;1.90;;;14.60;99.90;;;;;;5001959;28;20586;-96
2022/11/07 11:47:39;;;;;;;11.33;2.23;;;14.50;99.90;;;;;;4996100;28;20172;-96
2022/11/07 11:50:40;;;;;;;8.07;1.40;;;14.40;99.90;;;;;;4996799;28;20207;-94
2022/11/07 11:53:14;;;;;;;3.63;2.60;;;14.30;99.90;;;;;;4992454;28;20672;-96
2022/11/07 11:55:49;;;;;;;5.50;1.57;;;14.30;99.90;;;;;;4995658;28;20208;-96
2022/11/07 11:58:28;;;;;;;2.07;1.53;;;14.20;99.90;;;;;;4993811;28;20216;-95
2022/11/07 12:01:29;;;;;;;0.90;0.73;;;14.30;99.90;;;;;;5019165;23;20324;-89
2022/11/07 12:04:25;;;;;;;6.30;2.17;;;14.40;99.90;;;;;;4993709;28;20348;-90
2022/11/07 12:07:01;;;;;;;5.13;1.33;;;14.70;99.90;;;;;;5007827;28;20255;-90
2022/11/07 12:10:02;;;;;;;11.30;2.10;;;14.90;99.90;;;;;;5007138;28;20253;-89
2022/11/07 12:12:33;;;;;;;1.90;1.37;;;15.10;99.90;;;;;;5007903;28;20223;-90
2022/11/07 12:15:08;;;;;;;1.40;1.30;;;15.00;99.90;;;;;;5007510;28;20223;-89
2022/11/07 12:17:58;;;;;;;5.10;2.50;;;15.10;99.90;;;;;;5002878;28;20235;-90
2022/11/07 12:21:05;;;;;;;2.50;1.83;;;15.00;99.90;;;;;;4988454;28;20210;-90
2022/11/07 12:23:57;;;;;;;1.57;1.37;;;15.00;99.90;;;;;;5005392;28;20215;-88
2022/11/07 12:26:33;;;;;;;1.30;1.20;;;15.10;99.90;;;;;;5007445;28;20186;-90
2022/11/07 12:29:18;;;;;;;3.93;1.00;;;15.00;99.90;;;;;;5007723;28;20239;-88
2022/11/07 12:32:22;;;;;;;3.20;2.13;;;15.00;99.90;;;;;;5006263;28;20215;-88
2022/11/07 12:35:06;;;;;;;1.80;1.27;;;15.00;99.90;;;;;;5006948;28;20309;-90
2022/11/07 12:37:51;;;;;;;2.07;1.67;;;15.10;99.90;;;;;;5007110;28;20251;-89
2022/11/07 12:40:37;;;;;;;4.83;1.43;;;15.00;99.90;;;;;;5006133;28;20700;-89
2022/11/07 12:43:15;;;;;;;2.90;1.50;;;15.00;99.90;;;;;;5005629;28;20230;-90
2022/11/07 12:45:49;;;;;;;6.33;2.27;;;14.90;99.90;;;;;;5000136;28;20235;-91
2022/11/07 12:48:30;;;;;;;2.77;2.57;;;14.80;99.90;;;;;;4997181;28;20220;-90
2022/11/07 12:51:14;;;;;;;2.07;1.43;;;14.90;99.90;;;;;;4987062;28;20246;-90
2022/11/07 12:53:55;;;;;;;5.17;1.87;;;15.00;99.90;;;;;;5007249;28;20293;-90
2022/11/07 12:56:27;;;;;;;2.80;1.10;;;14.90;99.90;;;;;;5005496;28;20187;-88
2022/11/07 12:58:53;;;;;;;1.93;1.57;;;14.90;99.90;;;;;;5023321;28;20187;-91
2022/11/07 13:01:27;;;;;;;2.37;2.17;;;14.90;99.90;;;;;;5006768;28;20297;-88
2022/11/07 13:04:03;;;;;;;1.57;1.47;;;14.90;99.90;;;;;;5006833;28;20223;-90
2022/11/07 13:06:41;;;;;;;3.47;1.87;;;14.90;99.90;;;;;;4995724;28;21366;-89
2022/11/07 13:09:23;;;;;;;2.10;1.97;;;14.80;99.90;;;;;;4988586;28;20222;-87
2022/11/07 13:12:06;;;;;;;1.70;1.50;;;14.80;99.90;;;;;;4998646;28;20223;-87
2022/11/07 13:14:41;;;;;;;2.17;1.43;;;14.80;99.90;;;;;;5002289;28;21146;-90
2022/11/07 13:17:10;;;;;;;6.60;1.90;;;14.80;99.90;;;;;;4987078;28;20890;-88
2022/11/07 13:19:41;;;;;;;2.70;2.10;;;14.80;99.90;;;;;;4997748;28;20192;-89
2022/11/07 13:22:16;;;;;;;1.87;1.20;;;14.80;99.90;;;;;;5006422;28;20215;-88
2022/11/07 13:25:04;;;;;;;5.23;1.57;;;14.80;99.90;;;;;;5008013;28;20286;-89
2022/11/07 13:27:41;;;;;;;9.53;1.63;;;14.70;99.90;;;;;;5014154;28;20219;-88
2022/11/07 13:30:13;;;;;;;3.73;1.30;;;14.70;99.90;;;;;;4997764;28;20293;-87
2022/11/07 13:32:47;;;;;;;2.37;1.23;;;14.70;99.90;;;;;;4993951;28;20652;-89
2022/11/07 13:35:22;;;;;;;2.37;1.20;;;14.70;99.90;;;;;;5011481;28;21027;-89
2022/11/07 13:37:56;;;;;;;7.13;2.00;;;14.70;99.90;;;;;;5010039;28;20271;-87